Time;durP1;ratioP1;P1;durP2;ratioP2;P2;SDS_P1;SDS_P2;PMS_P1;PMS_P2;Temp;Humidity;BMP_temperature;BMP_pressure;BME280_temperature;BME280_humidity;BME280_pressure;Samples;Min_cycle;Max_cycle;Signal;HPM_P1;HPM_P2
2023/01/14 00:02:13;;;;;;;10.23;1.40;;;;;;;6.33;87.32;99159.59;4839269;28;20368;-62
2023/01/14 00:04:42;;;;;;;11.87;1.60;;;;;;;6.28;88.05;99164.28;4876455;28;20240;-62
2023/01/14 00:07:08;;;;;;;13.57;1.60;;;;;;;6.29;86.88;99159.00;4883258;29;20237;-61
2023/01/14 00:09:36;;;;;;;9.70;1.80;;;;;;;6.29;87.25;99156.41;4879015;28;20250;-62
2023/01/14 00:12:02;;;;;;;12.30;3.10;;;;;;;6.26;87.15;99167.00;4890500;28;20349;-62
2023/01/14 00:14:31;;;;;;;10.33;1.37;;;;;;;6.25;88.47;99169.69;4890253;28;21074;-62
2023/01/14 00:16:59;;;;;;;7.67;2.00;;;;;;;6.20;88.12;99173.44;4891528;29;20255;-62
2023/01/14 00:19:27;;;;;;;52.13;16.13;;;;;;;6.21;88.39;99176.88;4885596;28;20235;-62
2023/01/14 00:21:55;;;;;;;9.83;1.77;;;;;;;6.30;86.76;99181.41;4887685;29;20252;-63
2023/01/14 00:24:23;;;;;;;41.03;11.27;;;;;;;6.28;87.37;99172.91;4861874;28;20243;-62
2023/01/14 00:26:51;;;;;;;22.13;6.97;;;;;;;6.27;88.21;99173.84;4886651;29;20244;-62
2023/01/14 00:29:20;;;;;;;48.33;14.63;;;;;;;6.29;86.82;99153.00;4888184;29;21820;-62
2023/01/14 00:31:47;;;;;;;14.47;3.83;;;;;;;6.27;87.70;99160.88;4883212;29;20245;-62
2023/01/14 00:34:15;;;;;;;9.53;2.67;;;;;;;6.29;85.24;99159.00;4873927;28;20262;-62
2023/01/14 00:36:45;;;;;;;11.80;3.03;;;;;;;6.27;86.67;99166.06;4890210;29;20242;-62
2023/01/14 00:39:12;;;;;;;6.63;1.40;;;;;;;6.17;87.36;99172.84;4909559;28;20236;-62
2023/01/14 00:41:40;;;;;;;8.40;1.30;;;;;;;6.24;85.15;99166.28;4890777;29;20299;-62
2023/01/14 00:44:07;;;;;;;12.87;1.77;;;;;;;6.20;85.89;99165.66;4904311;28;20264;-62
2023/01/14 00:46:58;;;;;;;8.80;1.27;;;;;;;6.16;87.00;99179.78;4873975;29;20286;-62
2023/01/14 00:49:25;;;;;;;8.63;1.40;;;;;;;6.20;85.85;99175.22;4891694;29;20240;-62
2023/01/14 00:51:53;;;;;;;10.33;1.53;;;;;;;6.25;84.17;99174.88;4893186;29;20240;-62
2023/01/14 00:54:21;;;;;;;12.40;2.97;;;;;;;6.20;84.81;99175.22;4887544;29;20239;-62
2023/01/14 00:56:48;;;;;;;10.00;1.83;;;;;;;6.19;84.43;99168.38;4898620;29;20236;-62
2023/01/14 00:59:19;;;;;;;12.80;2.23;;;;;;;6.23;84.00;99168.97;4890518;28;20220;-62
2023/01/14 01:01:46;;;;;;;11.53;3.97;;;;;;;6.16;83.86;99169.41;4894914;29;20247;-62
2023/01/14 01:04:13;;;;;;;6.77;1.70;;;;;;;6.08;84.54;99176.91;4890063;28;21686;-62
2023/01/14 01:06:40;;;;;;;9.10;1.70;;;;;;;6.16;82.62;99163.41;4891920;29;20246;-62
2023/01/14 01:09:08;;;;;;;7.47;1.50;;;;;;;6.09;83.88;99173.38;4895437;29;20292;-62
2023/01/14 01:11:38;;;;;;;11.33;1.57;;;;;;;6.04;84.72;99171.13;4889840;29;20235;-62
2023/01/14 01:14:05;;;;;;;13.27;2.27;;;;;;;6.12;83.29;99178.34;4892083;28;20284;-62
2023/01/14 01:16:32;;;;;;;8.10;1.00;;;;;;;6.12;83.88;99177.53;4890462;29;20353;-62
2023/01/14 01:18:58;;;;;;;6.27;1.43;;;;;;;6.12;84.37;99183.53;4892266;29;20239;-62
2023/01/14 01:21:27;;;;;;;10.90;1.67;;;;;;;6.19;82.69;99189.13;4889622;28;20712;-62
2023/01/14 01:23:54;;;;;;;11.07;1.50;;;;;;;6.25;82.21;99191.28;4890836;29;20322;-62
2023/01/14 01:26:23;;;;;;;11.13;1.53;;;;;;;6.27;82.33;99180.78;4890257;29;20276;-62
2023/01/14 01:28:52;;;;;;;8.87;2.37;;;;;;;6.26;81.93;99172.19;4894499;29;20250;-61
2023/01/14 01:31:18;;;;;;;8.67;1.17;;;;;;;6.28;80.65;99166.88;4885968;29;20492;-61
2023/01/14 01:33:45;;;;;;;10.43;1.23;;;;;;;6.28;82.00;99159.09;4892153;29;20243;-61
2023/01/14 01:36:14;;;;;;;9.47;1.30;;;;;;;6.27;81.86;99160.03;4888727;28;20236;-62
2023/01/14 01:38:42;;;;;;;10.70;1.47;;;;;;;6.25;81.85;99151.56;4893484;29;20240;-61
2023/01/14 01:41:13;;;;;;;8.30;1.23;;;;;;;6.23;82.14;99137.88;4890192;29;21606;-60
2023/01/14 01:44:00;;;;;;;10.67;1.30;;;;;;;6.18;79.86;99158.94;4895877;29;20257;-61
2023/01/14 01:46:28;;;;;;;6.17;1.00;;;;;;;6.10;81.24;99146.53;4887659;29;20239;-61
2023/01/14 01:48:58;;;;;;;11.00;1.67;;;;;;;6.19;78.47;99148.47;4890939;29;20252;-61
2023/01/14 01:51:29;;;;;;;9.63;1.60;;;;;;;6.14;80.68;99160.91;4887975;29;20654;-61
2023/01/14 01:53:58;;;;;;;11.20;1.70;;;;;;;6.10;80.46;99154.28;4909075;29;20288;-62
2023/01/14 01:56:29;;;;;;;7.77;1.70;;;;;;;6.10;80.62;99148.31;4889484;28;20728;-61
2023/01/14 01:58:58;;;;;;;11.37;1.40;;;;;;;6.12;80.41;99149.03;4916307;28;20235;-61
2023/01/14 02:01:26;;;;;;;10.40;1.40;;;;;;;6.14;80.35;99145.38;4906732;28;20260;-61
2023/01/14 02:03:53;;;;;;;6.00;1.30;;;;;;;6.10;81.17;99143.94;4892471;29;20243;-62
2023/01/14 02:06:20;;;;;;;10.70;1.30;;;;;;;6.09;81.37;99150.03;4909653;28;20234;-61
2023/01/14 02:08:49;;;;;;;8.00;1.23;;;;;;;6.14;79.95;99141.97;4892161;28;20645;-61
2023/01/14 02:11:29;;;;;;;7.13;1.53;;;;;;;6.18;80.02;99143.41;4884629;29;20236;-62
2023/01/14 02:14:13;;;;;;;7.93;1.07;;;;;;;6.20;80.12;99146.72;4890602;29;20577;-62
2023/01/14 02:16:52;;;;;;;9.20;1.43;;;;;;;6.20;81.04;99162.25;4891397;29;20235;-61
2023/01/14 02:19:38;;;;;;;6.40;1.30;;;;;;;6.24;80.84;99168.88;4894799;29;20251;-62
2023/01/14 02:22:30;;;;;;;13.80;1.63;;;;;;;6.26;79.99;99155.78;4890120;29;20356;-62
2023/01/14 02:25:22;;;;;;;6.20;1.33;;;;;;;6.32;79.02;99151.00;4886988;29;20236;-61
2023/01/14 02:27:53;;;;;;;17.23;1.83;;;;;;;6.36;78.33;99159.38;4889933;29;20318;-61
2023/01/14 02:30:38;;;;;;;12.37;2.23;;;;;;;6.49;77.70;99151.53;4888443;29;20255;-61
2023/01/14 02:33:19;;;;;;;10.97;1.70;;;;;;;6.43;79.96;99149.38;4909300;29;20233;-61
2023/01/14 02:35:51;;;;;;;8.30;1.73;;;;;;;6.26;81.67;99141.09;4914420;28;20244;-61
2023/01/14 02:38:27;;;;;;;7.13;1.37;;;;;;;6.19;83.69;99132.09;4895842;29;20605;-61
2023/01/14 02:41:02;;;;;;;15.53;2.00;;;;;;;6.10;84.76;99146.53;4899058;29;20239;-61
2023/01/14 02:46:30;;;;;;;12.00;1.00;;;;;;;6.07;83.20;99118.22;4892846;29;20251;-62
2023/01/14 02:49:07;;;;;;;7.17;1.70;;;;;;;6.12;82.62;99115.31;4899419;29;20385;-62
2023/01/14 02:51:34;;;;;;;10.50;1.50;;;;;;;6.11;84.54;99104.13;4890681;29;20244;-60
2023/01/14 02:54:01;;;;;;;8.57;1.30;;;;;;;6.06;84.17;99093.25;4886435;29;20318;-61
2023/01/14 02:56:31;;;;;;;10.57;1.40;;;;;;;6.10;84.61;99093.88;4896904;29;20728;-61
2023/01/14 02:59:29;;;;;;;7.40;0.97;;;;;;;6.03;83.37;99083.94;4894864;28;20324;-62
2023/01/14 03:02:18;;;;;;;8.67;1.40;;;;;;;5.98;83.93;99078.22;4882846;29;20341;-62
2023/01/14 03:05:08;;;;;;;10.00;1.30;;;;;;;5.96;83.55;99072.34;4892805;29;20240;-62
2023/01/14 03:07:43;;;;;;;7.00;1.40;;;;;;;5.97;83.27;99081.75;4889591;29;20287;-61
2023/01/14 03:10:18;;;;;;;7.47;1.10;;;;;;;5.90;84.28;99068.41;4910389;28;20231;-61
2023/01/14 03:12:48;;;;;;;12.67;1.20;;;;;;;5.94;82.65;99068.19;4895368;29;20238;-61
2023/01/14 03:15:24;;;;;;;7.20;1.40;;;;;;;6.05;80.88;99063.94;4903449;29;20235;-61
2023/01/14 03:17:56;;;;;;;8.50;0.97;;;;;;;6.07;81.52;99058.63;4913523;29;20926;-62
2023/01/14 03:20:28;;;;;;;8.43;1.20;;;;;;;6.15;79.73;99051.13;4887781;28;20295;-61
2023/01/14 03:22:58;;;;;;;14.17;2.23;;;;;;;6.20;78.89;99036.06;4894983;28;20319;-62
2023/01/14 03:25:26;;;;;;;12.10;1.13;;;;;;;6.26;79.67;99052.94;4889755;29;20240;-63
2023/01/14 03:28:03;;;;;;;5.77;1.20;;;;;;;6.53;76.01;99057.00;4892588;29;21361;-62
2023/01/14 03:30:34;;;;;;;9.37;1.47;;;;;;;6.58;76.88;99051.50;4895957;29;20274;-62
2023/01/14 03:33:05;;;;;;;7.90;1.27;;;;;;;6.56;75.69;99037.81;4893546;29;20237;-63
2023/01/14 03:35:34;;;;;;;9.03;1.30;;;;;;;6.49;77.12;99035.66;4891493;29;20235;-63
2023/01/14 03:38:05;;;;;;;10.10;1.30;;;;;;;6.46;76.90;99040.25;4892923;29;20243;-62
2023/01/14 03:40:35;;;;;;;10.67;1.47;;;;;;;6.50;76.30;99042.50;4891922;29;20658;-62
2023/01/14 03:43:06;;;;;;;7.77;1.33;;;;;;;6.67;74.42;99042.19;4894338;29;20263;-62
2023/01/14 03:45:36;;;;;;;5.53;1.10;;;;;;;6.57;74.86;99035.09;4890904;28;20968;-62
2023/01/14 03:48:05;;;;;;;7.40;0.97;;;;;;;6.64;73.52;99025.91;4891975;29;20307;-63
2023/01/14 03:50:36;;;;;;;7.07;1.40;;;;;;;6.56;74.62;99015.28;4891612;29;20324;-63
2023/01/14 03:53:15;;;;;;;12.37;2.00;;;;;;;6.47;75.97;99014.22;4895877;29;20255;-62
2023/01/14 03:55:51;;;;;;;4.40;1.23;;;;;;;6.35;75.77;99007.34;4892691;29;20239;-61
2023/01/14 03:58:23;;;;;;;11.47;1.60;;;;;;;6.27;76.76;99000.16;4891155;29;20228;-61
2023/01/14 04:00:54;;;;;;;9.10;1.37;;;;;;;6.24;77.30;98996.94;4893604;29;20286;-61
2023/01/14 04:03:23;;;;;;;9.57;1.23;;;;;;;6.19;77.74;98999.88;4888556;29;20241;-61
2023/01/14 04:05:52;;;;;;;6.63;1.20;;;;;;;6.21;76.70;99000.59;4892921;29;20241;-61
2023/01/14 04:08:20;;;;;;;9.80;1.37;;;;;;;6.32;77.13;98989.44;4891360;29;20243;-62
2023/01/14 04:10:47;;;;;;;6.70;1.50;;;;;;;6.44;76.65;99000.63;4894699;29;20231;-61
2023/01/14 04:16:00;;;;;;;5.73;1.27;;;;;;;6.59;76.21;99009.03;4894553;29;20247;-62
2023/01/14 04:18:28;;;;;;;9.67;1.13;;;;;;;6.49;77.29;98990.75;4892428;29;20255;-61
2023/01/14 04:20:55;;;;;;;10.70;1.80;;;;;;;6.45;77.24;98990.16;4894950;29;21230;-62
2023/01/14 04:23:21;;;;;;;11.57;1.30;;;;;;;6.34;78.10;98980.59;4889661;29;20310;-62
2023/01/14 04:25:48;;;;;;;12.77;1.60;;;;;;;6.29;77.96;98972.34;4892333;29;20224;-62
2023/01/14 04:28:15;;;;;;;8.33;1.33;;;;;;;6.31;77.75;98969.63;4892274;29;20233;-61
2023/01/14 04:30:44;;;;;;;8.73;2.03;;;;;;;6.32;77.84;98961.75;5101617;23;20561;-62
2023/01/14 04:33:11;;;;;;;8.77;1.60;;;;;;;6.31;78.29;98975.66;4904598;28;20230;-61
2023/01/14 04:35:38;;;;;;;10.10;1.97;;;;;;;6.33;79.14;98984.13;4908573;28;20224;-62
2023/01/14 04:38:05;;;;;;;11.87;1.40;;;;;;;6.40;77.65;98974.13;4911000;29;20302;-62
2023/01/14 04:40:31;;;;;;;10.77;1.67;;;;;;;6.47;77.31;98979.66;4908120;28;20231;-61
2023/01/14 04:42:57;;;;;;;10.37;2.00;;;;;;;6.56;76.11;98963.41;4914617;28;20310;-61
2023/01/14 04:45:24;;;;;;;11.30;1.63;;;;;;;6.64;75.79;98965.44;4914118;28;20251;-61
2023/01/14 04:47:50;;;;;;;10.37;1.50;;;;;;;6.56;76.98;98958.22;4915169;28;20298;-61
2023/01/14 04:50:33;;;;;;;11.60;1.50;;;;;;;6.48;76.41;98965.75;4913692;28;20712;-61
2023/01/14 04:53:12;;;;;;;10.67;1.53;;;;;;;6.44;76.98;98953.97;4914393;28;20243;-61
2023/01/14 04:55:40;;;;;;;8.93;1.77;;;;;;;6.37;77.22;98960.53;4912965;28;20684;-61
2023/01/14 04:58:09;;;;;;;14.63;1.80;;;;;;;6.50;74.79;98958.69;4915828;28;20223;-61
2023/01/14 05:00:36;;;;;;;12.87;1.70;;;;;;;6.47;76.50;98951.13;4926143;28;20242;-61
2023/01/14 05:03:04;;;;;;;9.53;1.23;;;;;;;6.43;76.60;98952.31;4914929;28;20238;-61
2023/01/14 05:05:31;;;;;;;12.00;2.07;;;;;;;6.53;74.74;98957.63;4913463;28;20244;-61
2023/01/14 05:07:57;;;;;;;15.27;1.80;;;;;;;6.54;75.63;98959.28;4916317;28;20243;-61
2023/01/14 05:10:25;;;;;;;9.70;1.97;;;;;;;6.71;73.49;98966.63;4912949;28;20810;-61
2023/01/14 05:13:00;;;;;;;10.20;1.93;;;;;;;6.69;73.25;98954.69;4913482;28;20254;-61
2023/01/14 05:15:28;;;;;;;10.20;1.40;;;;;;;6.87;73.36;98955.06;4911038;29;20226;-61
2023/01/14 05:17:55;;;;;;;9.63;1.67;;;;;;;6.88;73.03;98938.53;4914076;28;20226;-61
2023/01/14 05:20:23;;;;;;;13.40;2.87;;;;;;;6.87;72.76;98944.69;4910741;28;20235;-61
2023/01/14 05:22:50;;;;;;;11.07;1.83;;;;;;;6.79;74.44;98932.28;4913971;28;20249;-61
2023/01/14 05:25:17;;;;;;;8.23;1.57;;;;;;;6.65;76.56;98931.56;4911771;28;20278;-61
2023/01/14 05:27:45;;;;;;;8.60;1.63;;;;;;;6.56;77.21;98928.88;4914427;28;20247;-60
2023/01/14 05:30:11;;;;;;;13.23;1.90;;;;;;;6.50;77.11;98928.41;4912231;28;20223;-61
2023/01/14 05:32:38;;;;;;;12.03;1.70;;;;;;;6.43;78.02;98916.00;4915015;28;20243;-61
2023/01/14 05:35:05;;;;;;;13.17;2.00;;;;;;;6.44;78.15;98910.72;4913960;28;20294;-61
2023/01/14 05:37:33;;;;;;;12.87;2.20;;;;;;;6.39;78.35;98912.84;4911918;28;20250;-62
2023/01/14 05:39:59;;;;;;;12.10;2.07;;;;;;;6.42;78.55;98916.94;4915491;28;20226;-61
2023/01/14 05:47:56;;;;;;;11.17;1.60;;;;;;;6.37;79.84;98908.69;4915028;29;20782;-62
2023/01/14 05:50:23;;;;;;;8.50;1.60;;;;;;;6.38;79.95;98918.97;4910351;28;20235;-62
2023/01/14 05:52:49;;;;;;;10.63;1.70;;;;;;;6.59;78.86;98913.88;4914684;29;21022;-62
2023/01/14 05:55:16;;;;;;;23.20;2.20;;;;;;;6.65;78.71;98915.19;4911436;28;20234;-62
2023/01/14 05:57:43;;;;;;;7.53;1.60;;;;;;;6.71;78.45;98909.53;4916423;28;20246;-62
2023/01/14 06:06:20;;;;;;;11.67;1.80;;;;;;;6.84;78.41;98914.59;4912490;28;20239;-62
2023/01/14 06:08:28;;;;;;;10.20;1.57;;;;;;;7.08;76.59;98905.81;4912441;29;20751;-61
2023/01/14 06:10:54;;;;;;;9.20;1.37;;;;;;;7.12;75.90;98909.81;4914163;28;20255;-62
2023/01/14 06:13:23;;;;;;;7.70;1.40;;;;;;;7.17;75.91;98899.06;4911712;28;20231;-62
2023/01/14 06:15:52;;;;;;;4.90;1.20;;;;;;;7.27;75.01;98896.56;4915282;28;20234;-62
2023/01/14 06:18:22;;;;;;;13.53;3.00;;;;;;;7.26;75.70;98903.53;4913247;28;20235;-62
2023/01/14 06:20:49;;;;;;;6.77;1.47;;;;;;;7.33;74.84;98893.50;4912044;28;20322;-62
2023/01/14 06:23:15;;;;;;;15.57;5.20;;;;;;;7.30;75.61;98893.72;4913318;28;20234;-62
2023/01/14 06:25:44;;;;;;;14.30;4.57;;;;;;;7.35;75.30;98895.00;4916463;28;20647;-62
2023/01/14 06:28:11;;;;;;;11.03;2.57;;;;;;;7.34;75.28;98885.56;4909887;28;20231;-62
2023/01/14 06:30:38;;;;;;;17.83;6.93;;;;;;;7.39;74.92;98877.41;4914197;28;20721;-62
2023/01/14 06:33:06;;;;;;;17.40;7.07;;;;;;;7.42;74.93;98882.31;4915032;28;20640;-62
2023/01/14 06:35:33;;;;;;;13.97;3.47;;;;;;;7.42;76.43;98874.53;4912733;28;20351;-62
2023/01/14 06:38:00;;;;;;;10.87;1.80;;;;;;;7.49;75.66;98880.88;4914287;28;20273;-62
2023/01/14 06:40:26;;;;;;;7.03;1.73;;;;;;;7.48;76.08;98862.84;4909651;28;20783;-62
2023/01/14 06:42:54;;;;;;;8.90;2.33;;;;;;;7.50;76.67;98855.75;4913064;28;20243;-62
2023/01/14 06:45:20;;;;;;;6.77;1.37;;;;;;;7.53;76.47;98829.53;4911446;28;20267;-62
2023/01/14 06:47:47;;;;;;;8.97;1.70;;;;;;;7.53;77.09;98835.53;4915260;28;20253;-63
2023/01/14 06:50:17;;;;;;;6.00;1.10;;;;;;;7.56;76.90;98824.06;4910735;29;20298;-62
2023/01/14 06:52:43;;;;;;;7.07;1.30;;;;;;;7.59;76.49;98820.38;4914404;28;20330;-62
2023/01/14 06:55:10;;;;;;;4.27;1.13;;;;;;;7.52;77.89;98828.69;4908583;28;20326;-62
2023/01/14 06:57:37;;;;;;;11.50;1.80;;;;;;;7.53;77.97;98812.16;4912837;28;20726;-62
2023/01/14 07:00:05;;;;;;;6.57;0.73;;;;;;;7.52;78.30;98825.28;4912895;29;20365;-62
2023/01/14 07:02:31;;;;;;;5.10;0.70;;;;;;;7.52;77.66;98820.88;4909956;28;20244;-62
2023/01/14 07:04:58;;;;;;;3.63;0.83;;;;;;;7.55;78.69;98819.81;4914282;29;20247;-62
2023/01/14 07:07:26;;;;;;;3.10;0.50;;;;;;;7.55;79.27;98827.63;4910830;28;20931;-62
2023/01/14 07:09:52;;;;;;;4.63;0.93;;;;;;;7.56;79.19;98821.47;4913065;28;20236;-63
2023/01/14 07:12:19;;;;;;;4.10;0.60;;;;;;;7.59;80.39;98825.59;4910323;28;20231;-62
2023/01/14 07:14:45;;;;;;;4.50;1.33;;;;;;;7.52;81.31;98826.09;4914445;28;20239;-62
2023/01/14 07:17:12;;;;;;;3.50;0.50;;;;;;;7.49;82.30;98807.34;4912614;28;20235;-62
2023/01/14 07:19:38;;;;;;;3.83;0.60;;;;;;;7.46;82.00;98812.78;4917963;28;20231;-62
2023/01/14 07:22:05;;;;;;;3.63;1.27;;;;;;;7.41;82.71;98807.16;4914804;28;20310;-62
2023/01/14 07:24:33;;;;;;;4.37;0.70;;;;;;;7.43;82.54;98807.84;4913347;28;20239;-62
2023/01/14 07:26:59;;;;;;;6.00;1.00;;;;;;;7.43;83.53;98808.66;4917110;28;20244;-62
2023/01/14 07:29:26;;;;;;;4.50;1.00;;;;;;;7.41;83.78;98815.78;4915863;28;20223;-63
2023/01/14 07:31:53;;;;;;;2.03;0.77;;;;;;;7.45;84.23;98811.94;4915974;28;20303;-62
2023/01/14 07:34:19;;;;;;;4.50;0.73;;;;;;;7.57;82.39;98811.91;4913275;28;20607;-62
2023/01/14 07:36:46;;;;;;;7.40;0.80;;;;;;;7.58;83.28;98818.75;4918311;28;20294;-62
2023/01/14 07:39:12;;;;;;;7.70;2.00;;;;;;;7.61;83.20;98819.31;4914261;28;20278;-62
2023/01/14 07:41:41;;;;;;;4.07;1.07;;;;;;;7.65;83.64;98818.13;4911501;29;20302;-62
2023/01/14 07:44:07;;;;;;;3.53;0.97;;;;;;;7.70;83.36;98812.53;4916988;28;20361;-63
2023/01/14 07:46:34;;;;;;;4.20;0.60;;;;;;;7.76;83.48;98804.22;4914767;28;20294;-63
2023/01/14 07:49:00;;;;;;;2.87;0.80;;;;;;;7.78;82.60;98804.09;4914846;28;20754;-62
2023/01/14 07:51:28;;;;;;;3.20;0.60;;;;;;;7.80;82.56;98795.22;4915639;28;20231;-63
2023/01/14 07:53:54;;;;;;;3.50;0.80;;;;;;;7.85;82.52;98797.44;4918937;28;20241;-63
2023/01/14 07:56:21;;;;;;;3.90;0.73;;;;;;;7.88;83.31;98799.78;4914088;28;20239;-63
2023/01/14 07:58:49;;;;;;;4.00;1.30;;;;;;;7.93;81.94;98799.38;4914722;28;20291;-62
2023/01/14 08:01:16;;;;;;;5.00;1.13;;;;;;;7.93;81.77;98802.81;4914662;28;20453;-63
2023/01/14 08:03:42;;;;;;;3.63;0.60;;;;;;;7.98;81.78;98800.63;4917746;29;20242;-63
2023/01/14 08:06:09;;;;;;;4.43;2.17;;;;;;;7.98;81.96;98797.22;4916227;28;20280;-63
2023/01/14 08:08:35;;;;;;;5.80;3.40;;;;;;;8.00;81.73;98800.53;4914813;28;20242;-63
2023/01/14 08:11:02;;;;;;;5.10;1.13;;;;;;;8.02;82.12;98783.00;4918908;28;20307;-63
2023/01/14 08:13:30;;;;;;;122.97;49.13;;;;;;;8.05;82.03;98784.50;4914288;28;20249;-63
2023/01/14 08:16:01;;;;;;;44.07;23.57;;;;;;;8.07;82.01;98788.66;4913309;29;20295;-63
2023/01/14 08:18:29;;;;;;;8.10;3.30;;;;;;;8.17;80.96;98785.25;4913105;29;20227;-63
2023/01/14 08:20:59;;;;;;;6.17;2.20;;;;;;;8.23;81.43;98788.16;4916683;28;20278;-63
2023/01/14 08:23:26;;;;;;;10.07;5.90;;;;;;;8.30;80.38;98790.22;4912992;28;20230;-64
2023/01/14 08:25:53;;;;;;;16.63;12.73;;;;;;;8.39;81.30;98786.81;4917353;28;20880;-63
2023/01/14 08:28:20;;;;;;;25.43;18.83;;;;;;;8.41;79.49;98769.31;4913089;28;20239;-63
2023/01/14 08:30:47;;;;;;;13.63;9.23;;;;;;;8.50;80.07;98754.69;4913101;28;20227;-64
2023/01/14 08:33:14;;;;;;;6.67;4.03;;;;;;;8.58;78.77;98765.25;4912177;28;20224;-63
2023/01/14 08:35:41;;;;;;;3.10;1.47;;;;;;;8.61;78.63;98751.97;4916824;28;20708;-64
2023/01/14 08:38:08;;;;;;;4.60;2.80;;;;;;;8.60;77.74;98745.13;4917331;28;20236;-64
2023/01/14 08:40:35;;;;;;;2.63;1.30;;;;;;;8.64;79.17;98745.69;4910649;28;20325;-64
2023/01/14 08:43:01;;;;;;;4.73;0.50;;;;;;;8.63;77.85;98747.47;4914250;28;20593;-64
2023/01/14 08:45:28;;;;;;;1.77;0.63;;;;;;;8.74;76.85;98745.69;4915748;28;21276;-63
2023/01/14 08:47:54;;;;;;;2.27;0.60;;;;;;;8.71;77.90;98737.19;4910127;29;20224;-64
2023/01/14 08:50:22;;;;;;;2.97;0.40;;;;;;;8.71;77.70;98736.38;4913544;28;20221;-64
2023/01/14 08:52:49;;;;;;;2.37;0.57;;;;;;;8.74;76.97;98730.06;4915854;28;20242;-64
2023/01/14 08:55:16;;;;;;;2.53;0.37;;;;;;;8.82;77.50;98741.47;4913460;28;20227;-64
2023/01/14 08:57:42;;;;;;;1.97;0.50;;;;;;;8.91;76.22;98734.59;4914169;29;20310;-64
2023/01/14 09:00:10;;;;;;;1.83;0.30;;;;;;;8.93;76.16;98740.50;4914918;28;20218;-64
2023/01/14 09:02:37;;;;;;;2.37;0.50;;;;;;;9.04;76.63;98746.53;4912340;28;20298;-65
2023/01/14 09:05:03;;;;;;;3.43;0.50;;;;;;;9.11;74.91;98745.00;4917292;28;20236;-63
2023/01/14 09:18:37;;;;;;;2.63;0.70;;;;;;;9.04;75.32;98728.28;4912846;28;20711;-63
2023/01/14 09:21:04;;;;;;;2.03;0.40;;;;;;;9.10;74.49;98725.16;4915635;28;20242;-63
2023/01/14 09:23:32;;;;;;;2.80;0.30;;;;;;;8.99;78.12;98732.13;4911404;28;20239;-63
2023/01/14 09:25:59;;;;;;;1.30;0.40;;;;;;;8.84;77.53;98723.94;4914228;28;20236;-63
2023/01/14 09:28:26;;;;;;;2.30;0.50;;;;;;;8.89;76.35;98730.50;4912207;28;20240;-64
2023/01/14 09:30:52;;;;;;;4.23;0.87;;;;;;;8.91;78.06;98737.22;4913521;28;20707;-64
2023/01/14 09:33:19;;;;;;;1.27;0.70;;;;;;;8.87;77.36;98730.63;4909077;28;20229;-63
2023/01/14 09:35:45;;;;;;;2.60;0.80;;;;;;;8.95;76.47;98722.16;4915098;28;20711;-64
2023/01/14 09:38:12;;;;;;;2.50;1.00;;;;;;;8.96;77.52;98685.56;4914319;28;20710;-64
2023/01/14 09:40:40;;;;;;;1.77;0.60;;;;;;;9.17;76.57;98663.72;4914741;28;20640;-64
2023/01/14 09:43:15;;;;;;;0.80;0.40;;;;;;;9.17;76.38;98658.53;4916399;28;20228;-63
2023/01/14 09:45:42;;;;;;;3.43;0.70;;;;;;;9.33;76.72;98668.34;4912314;28;20657;-63
2023/01/14 09:48:14;;;;;;;1.20;0.30;;;;;;;9.50;75.22;98661.56;4914808;28;21116;-64
2023/01/14 09:50:49;;;;;;;2.00;0.57;;;;;;;9.49;75.42;98662.53;4912673;28;20251;-63
2023/01/14 09:53:30;;;;;;;1.13;0.40;;;;;;;9.59;74.83;98668.50;4912989;28;20230;-64
2023/01/14 09:56:05;;;;;;;1.03;0.30;;;;;;;9.66;73.71;98668.78;4913269;29;20232;-64
2023/01/14 09:58:37;;;;;;;2.00;0.40;;;;;;;9.78;73.32;98674.59;4912084;28;20242;-63
2023/01/14 10:01:13;;;;;;;0.90;0.30;;;;;;;9.79;72.67;98659.81;4916415;28;20247;-63
2023/01/14 10:03:47;;;;;;;1.57;0.30;;;;;;;9.86;72.58;98668.69;4908946;29;20588;-64
2023/01/14 10:06:16;;;;;;;0.73;0.37;;;;;;;9.95;72.75;98652.16;4912252;28;20292;-64
2023/01/14 10:08:46;;;;;;;1.47;0.40;;;;;;;9.79;72.09;98651.97;4918782;28;20283;-64
2023/01/14 10:11:15;;;;;;;0.70;0.33;;;;;;;9.75;72.55;98631.41;4911209;28;20714;-63
2023/01/14 10:13:47;;;;;;;1.67;0.40;;;;;;;9.76;72.43;98650.47;4914522;28;20246;-63
2023/01/14 10:16:18;;;;;;;1.77;0.33;;;;;;;9.74;73.07;98626.34;4911726;28;20256;-64
2023/01/14 10:18:51;;;;;;;1.07;0.40;;;;;;;9.69;72.29;98623.34;4914538;28;20240;-64
2023/01/14 10:21:25;;;;;;;1.13;0.57;;;;;;;9.72;72.27;98610.84;4910158;28;20250;-64
2023/01/14 10:23:52;;;;;;;2.10;0.67;;;;;;;9.66;72.11;98614.03;4913780;28;20740;-63
2023/01/14 10:26:22;;;;;;;2.20;0.53;;;;;;;9.73;72.94;98614.25;4912505;28;20234;-63
2023/01/14 10:28:53;;;;;;;1.80;0.57;;;;;;;9.70;71.86;98609.34;4916706;29;20239;-64
2023/01/14 10:31:26;;;;;;;4.83;1.00;;;;;;;9.76;72.66;98598.34;4910454;28;20247;-64
2023/01/14 10:33:53;;;;;;;2.20;0.60;;;;;;;9.70;73.90;98596.31;4912888;28;20247;-63
2023/01/14 10:36:23;;;;;;;1.20;0.30;;;;;;;9.73;72.98;98586.44;4913259;28;20246;-63
2023/01/14 10:38:51;;;;;;;2.00;0.57;;;;;;;9.69;72.42;98564.22;4912846;28;20694;-63
2023/01/14 10:41:48;;;;;;;2.50;1.20;;;;;;;9.84;71.69;98569.75;4908328;28;20232;-64
2023/01/14 10:44:07;;;;;;;0.40;0.20;;;;;;;9.69;71.66;98561.63;4913227;28;20644;-64
2023/01/14 10:46:33;;;;;;;3.30;0.50;;;;;;;9.66;71.67;98558.47;4910248;28;20271;-63
2023/01/14 10:49:05;;;;;;;1.77;0.30;;;;;;;9.73;70.10;98556.91;4915755;28;20236;-64
2023/01/14 10:51:36;;;;;;;1.30;0.50;;;;;;;9.77;70.98;98554.84;4911958;28;20299;-63
2023/01/14 10:54:14;;;;;;;5.70;0.80;;;;;;;9.68;71.25;98541.75;4917172;28;20227;-63
2023/01/14 10:56:43;;;;;;;1.20;0.47;;;;;;;9.73;70.34;98541.28;4918307;28;20754;-63
2023/01/14 10:59:38;;;;;;;0.70;0.30;;;;;;;9.82;71.05;98540.41;4919095;28;20228;-64
2023/01/14 11:02:05;;;;;;;10.30;5.87;;;;;;;9.68;70.24;98535.69;4916415;28;20254;-63
2023/01/14 11:04:36;;;;;;;2.57;0.80;;;;;;;9.85;70.36;98521.84;4916040;28;20748;-64
2023/01/14 11:07:10;;;;;;;1.90;1.17;;;;;;;9.80;69.68;98516.25;4917203;28;20250;-64
2023/01/14 11:09:37;;;;;;;4.57;2.80;;;;;;;9.92;70.63;98516.03;4913629;28;20264;-64
2023/01/14 11:12:05;;;;;;;1.93;0.50;;;;;;;9.87;70.57;98509.50;4918440;28;20252;-64
2023/01/14 11:14:39;;;;;;;2.23;0.70;;;;;;;9.73;69.00;98505.63;4914210;28;20229;-63
2023/01/14 11:17:22;;;;;;;2.83;0.50;;;;;;;9.81;68.60;98494.44;4917722;28;20227;-64
2023/01/14 11:19:49;;;;;;;2.23;0.70;;;;;;;9.79;70.17;98493.78;4916092;28;20291;-63
2023/01/14 11:22:17;;;;;;;0.70;0.67;;;;;;;9.86;68.70;98478.38;4914625;28;20283;-63
2023/01/14 11:24:46;;;;;;;0.70;0.40;;;;;;;9.89;69.56;98471.06;4917521;28;20236;-64
2023/01/14 11:27:17;;;;;;;1.87;0.90;;;;;;;9.90;68.10;98464.88;4915257;28;20246;-63
2023/01/14 11:29:47;;;;;;;1.37;0.70;;;;;;;9.86;67.98;98460.94;4916092;28;20263;-63
2023/01/14 11:32:16;;;;;;;0.90;0.50;;;;;;;9.82;67.25;98451.75;4914008;28;20231;-64
2023/01/14 11:34:48;;;;;;;2.00;0.50;;;;;;;9.87;66.33;98446.91;4915706;28;20427;-64
2023/01/14 11:37:19;;;;;;;3.13;0.50;;;;;;;9.89;66.48;98436.34;4913578;28;20231;-63
2023/01/14 11:39:48;;;;;;;0.90;0.53;;;;;;;9.88;66.31;98427.69;4916594;28;20227;-64
2023/01/14 11:42:23;;;;;;;2.30;1.00;;;;;;;9.87;66.51;98423.44;4916166;28;20238;-64
2023/01/14 11:44:58;;;;;;;2.17;0.70;;;;;;;9.90;65.22;98417.13;4917160;28;20222;-64
2023/01/14 11:47:26;;;;;;;1.93;1.67;;;;;;;9.96;66.07;98400.06;4913998;28;20941;-63
2023/01/14 11:50:11;;;;;;;1.43;0.60;;;;;;;9.86;65.20;98405.38;4915634;28;20325;-64
2023/01/14 11:52:38;;;;;;;1.03;0.60;;;;;;;9.90;65.69;98397.09;4913647;28;20239;-64
2023/01/14 11:55:13;;;;;;;0.77;0.57;;;;;;;9.85;65.45;98367.25;4916140;28;20236;-63
2023/01/14 11:57:40;;;;;;;3.33;1.80;;;;;;;9.84;65.30;98355.97;4913540;28;20305;-68
2023/01/14 12:00:10;;;;;;;3.07;0.60;;;;;;;9.83;64.18;98356.94;4913080;29;20240;-63
2023/01/14 12:02:44;;;;;;;2.13;0.50;;;;;;;9.84;65.78;98350.75;4917541;28;20347;-64
2023/01/14 12:05:15;;;;;;;1.97;0.40;;;;;;;9.90;62.85;98350.16;4911828;28;20224;-63
2023/01/14 12:07:45;;;;;;;0.80;0.40;;;;;;;9.91;62.70;98340.56;4916929;28;20266;-64
2023/01/14 12:10:19;;;;;;;1.17;0.30;;;;;;;10.05;61.40;98336.56;4914700;28;20307;-64
2023/01/14 12:18:30;;;;;;;1.43;0.50;;;;;;;10.18;59.77;98315.25;4915054;28;20242;-64
2023/01/14 12:20:58;;;;;;;1.13;0.50;;;;;;;10.31;58.96;98314.84;4916534;28;20649;-63
2023/01/14 12:23:29;;;;;;;1.37;0.60;;;;;;;10.38;58.97;98310.63;4913412;28;20247;-64
2023/01/14 12:25:58;;;;;;;1.00;0.40;;;;;;;10.40;59.01;98313.09;4915457;28;20235;-63